Time;durP1;ratioP1;P1;durP2;ratioP2;P2;SDS_P1;SDS_P2;PMS_P1;PMS_P2;Temp;Humidity;BMP_temperature;BMP_pressure;BME280_temperature;BME280_humidity;BME280_pressure;Samples;Min_cycle;Max_cycle;Signal;HPM_P1;HPM_P2
2021/12/13 00:02:05;;;;;;;0.95;0.20;;;;;;;;;;5052092;28;20423;-68
2021/12/13 00:04:30;;;;;;;1.38;0.20;;;;;;;;;;5051949;28;20028;-68
2021/12/13 00:07:02;;;;;;;0.50;0.10;;;;;;;;;;5050772;28;20107;-68
2021/12/13 00:09:28;;;;;;;0.85;0.28;;;;;;;;;;5052023;28;20021;-68
2021/12/13 00:11:55;;;;;;;1.08;0.20;;;;;;;;;;5052072;28;20020;-68
2021/12/13 00:14:23;;;;;;;0.40;0.10;;;;;;;;;;5034088;28;20560;-67
2021/12/13 00:17:03;;;;;;;1.70;0.30;;;;;;;;;;5051917;28;20024;-68
2021/12/13 00:19:51;;;;;;;1.30;0.50;;;;;;;;;;5051463;28;20108;-68
2021/12/13 00:22:19;;;;;;;0.13;0.13;;;;;;;;;;5046139;28;20045;-68
2021/12/13 00:24:46;;;;;;;0.75;0.28;;;;;;;;;;5051831;28;20013;-68
2021/12/13 00:27:27;;;;;;;1.02;0.10;;;;;;;;;;5051956;28;20470;-68
2021/12/13 00:29:59;;;;;;;0.20;0.10;;;;;;;;;;5051855;28;20021;-69
2021/12/13 00:32:43;;;;;;;0.68;0.13;;;;;;;;;;5054948;28;20032;-68
2021/12/13 00:35:09;;;;;;;0.23;0.20;;;;;;;;;;5055804;28;20021;-69
2021/12/13 00:37:39;;;;;;;0.10;0.10;;;;;;;;;;5055635;28;20017;-68
2021/12/13 00:40:10;;;;;;;0.15;0.00;;;;;;;;;;5055356;28;20025;-68
2021/12/13 00:42:39;;;;;;;0.57;0.25;;;;;;;;;;5055264;28;20027;-68
2021/12/13 00:45:07;;;;;;;0.38;0.10;;;;;;;;;;5055596;28;20522;-67
2021/12/13 00:47:34;;;;;;;0.40;0.20;;;;;;;;;;5055434;28;20372;-67
2021/12/13 00:50:05;;;;;;;2.38;0.60;;;;;;;;;;5055599;28;20106;-68
2021/12/13 00:52:31;;;;;;;0.20;0.15;;;;;;;;;;5054012;28;20111;-68
2021/12/13 00:54:56;;;;;;;0.45;0.20;;;;;;;;;;5055076;28;20483;-68
2021/12/13 00:57:30;;;;;;;0.63;0.10;;;;;;;;;;5055316;28;20025;-67
2021/12/13 01:00:04;;;;;;;0.85;0.20;;;;;;;;;;5055365;28;20013;-68
2021/12/13 01:02:35;;;;;;;0.70;0.10;;;;;;;;;;5054918;28;20057;-68
2021/12/13 01:05:00;;;;;;;0.63;0.13;;;;;;;;;;5055222;28;20032;-69
2021/12/13 01:07:44;;;;;;;0.53;0.30;;;;;;;;;;5055062;28;20353;-69
2021/12/13 01:10:27;;;;;;;1.35;0.13;;;;;;;;;;5055223;28;20289;-68
2021/12/13 01:12:54;;;;;;;0.28;0.10;;;;;;;;;;5054979;28;20480;-67
2021/12/13 01:15:29;;;;;;;1.25;0.20;;;;;;;;;;5053725;28;20028;-68
2021/12/13 01:18:24;;;;;;;0.73;0.15;;;;;;;;;;5055074;28;20051;-69
2021/12/13 01:23:45;;;;;;;0.70;0.20;;;;;;;;;;4973400;28;20110;-69
2021/12/13 01:28:46;;;;;;;0.63;0.10;;;;;;;;;;4973430;28;20057;-67
2021/12/13 01:31:15;;;;;;;0.10;0.03;;;;;;;;;;4973462;28;20062;-68
2021/12/13 01:33:44;;;;;;;1.02;0.50;;;;;;;;;;4973254;28;20458;-68
2021/12/13 01:36:10;;;;;;;0.45;0.10;;;;;;;;;;4973682;28;20023;-68
2021/12/13 01:38:50;;;;;;;0.47;0.20;;;;;;;;;;4973232;28;20059;-67
2021/12/13 01:41:17;;;;;;;0.40;0.10;;;;;;;;;;4973083;28;20027;-69
2021/12/13 01:43:46;;;;;;;0.30;0.05;;;;;;;;;;4962103;28;20106;-69
2021/12/13 01:46:11;;;;;;;1.38;0.30;;;;;;;;;;4954093;29;20078;-69
2021/12/13 01:48:38;;;;;;;0.77;0.10;;;;;;;;;;4953736;29;20043;-68
2021/12/13 01:51:06;;;;;;;0.20;0.20;;;;;;;;;;4953894;29;20510;-68
2021/12/13 01:53:47;;;;;;;0.20;0.10;;;;;;;;;;4953562;29;20121;-68
2021/12/13 01:59:15;;;;;;;0.32;0.10;;;;;;;;;;4954044;29;20100;-68
2021/12/13 02:01:43;;;;;;;3.03;0.20;;;;;;;;;;5027944;28;20056;-68
2021/12/13 02:04:10;;;;;;;0.25;0.17;;;;;;;;;;5053912;28;20025;-68
2021/12/13 02:06:38;;;;;;;0.65;0.20;;;;;;;;;;5053833;28;20013;-69
2021/12/13 02:09:06;;;;;;;0.98;0.17;;;;;;;;;;5053973;28;20013;-69
2021/12/13 02:11:32;;;;;;;0.45;0.10;;;;;;;;;;5053900;28;20057;-69
2021/12/13 02:14:09;;;;;;;0.65;0.10;;;;;;;;;;5053961;28;20036;-68
2021/12/13 02:16:57;;;;;;;0.82;0.20;;;;;;;;;;5053693;28;20020;-69
2021/12/13 02:19:24;;;;;;;0.60;0.20;;;;;;;;;;5053714;28;20048;-68
2021/12/13 02:21:50;;;;;;;0.47;0.10;;;;;;;;;;5053643;28;20017;-68
2021/12/13 02:24:15;;;;;;;1.10;0.22;;;;;;;;;;5053985;28;20017;-68
2021/12/13 02:26:45;;;;;;;0.68;0.17;;;;;;;;;;5053547;28;20031;-67
2021/12/13 02:29:19;;;;;;;0.38;0.10;;;;;;;;;;5053562;28;20372;-68
2021/12/13 02:31:46;;;;;;;0.30;0.10;;;;;;;;;;5053595;28;20199;-69
2021/12/13 02:34:13;;;;;;;0.63;0.20;;;;;;;;;;5053463;28;20048;-69
2021/12/13 02:36:41;;;;;;;1.45;0.20;;;;;;;;;;5053293;28;20055;-68
2021/12/13 02:39:09;;;;;;;0.98;0.20;;;;;;;;;;5053352;28;20021;-68
2021/12/13 02:41:34;;;;;;;0.60;0.10;;;;;;;;;;5053002;28;20059;-67
2021/12/13 02:44:05;;;;;;;1.02;0.20;;;;;;;;;;5053291;28;20029;-68
2021/12/13 02:46:31;;;;;;;1.20;0.10;;;;;;;;;;5035277;28;20500;-68
2021/12/13 02:48:59;;;;;;;0.17;0.10;;;;;;;;;;5053235;28;20032;-68
2021/12/13 02:51:27;;;;;;;0.88;0.10;;;;;;;;;;5053124;28;20032;-68
2021/12/13 02:53:56;;;;;;;0.55;0.40;;;;;;;;;;5052755;28;20028;-67
2021/12/13 02:56:25;;;;;;;0.10;0.10;;;;;;;;;;5053001;28;20087;-68
2021/12/13 02:58:52;;;;;;;0.68;0.10;;;;;;;;;;5053021;28;20017;-68
2021/12/13 03:01:37;;;;;;;0.38;0.30;;;;;;;;;;5034830;28;20017;-68
2021/12/13 03:04:05;;;;;;;0.17;0.00;;;;;;;;;;5052311;28;20455;-68
2021/12/13 03:06:33;;;;;;;0.57;0.20;;;;;;;;;;5052664;28;20366;-68
2021/12/13 03:09:14;;;;;;;0.20;0.15;;;;;;;;;;5035332;28;20375;-68
2021/12/13 03:11:39;;;;;;;1.42;0.20;;;;;;;;;;5052738;28;20023;-68
2021/12/13 03:14:19;;;;;;;0.60;0.10;;;;;;;;;;5052622;28;20025;-68
2021/12/13 03:16:53;;;;;;;0.22;0.10;;;;;;;;;;5052616;28;20021;-68
2021/12/13 03:19:27;;;;;;;0.20;0.10;;;;;;;;;;5052604;28;20021;-69
2021/12/13 03:22:11;;;;;;;0.20;0.00;;;;;;;;;;5052554;28;20017;-69
2021/12/13 03:24:38;;;;;;;0.17;0.10;;;;;;;;;;5052603;28;20451;-69
2021/12/13 03:27:03;;;;;;;0.55;0.40;;;;;;;;;;5052548;28;20063;-68
2021/12/13 03:29:34;;;;;;;0.13;0.10;;;;;;;;;;5052455;28;20017;-67
2021/12/13 03:31:59;;;;;;;1.35;0.20;;;;;;;;;;5034632;28;20063;-69
2021/12/13 03:34:27;;;;;;;2.17;0.40;;;;;;;;;;5052363;28;20013;-69
2021/12/13 03:37:06;;;;;;;1.60;0.15;;;;;;;;;;5052461;28;20013;-69
2021/12/13 03:39:31;;;;;;;1.13;0.10;;;;;;;;;;5052278;28;20065;-68
2021/12/13 03:41:58;;;;;;;0.65;0.10;;;;;;;;;;5052264;28;20017;-69
2021/12/13 03:44:25;;;;;;;0.93;0.20;;;;;;;;;;5052101;28;20480;-69
2021/12/13 03:46:53;;;;;;;2.10;0.20;;;;;;;;;;5052561;28;20024;-68
2021/12/13 03:49:19;;;;;;;0.40;0.20;;;;;;;;;;5052137;28;20017;-68
2021/12/13 03:51:44;;;;;;;1.15;0.13;;;;;;;;;;5052244;28;20021;-67
2021/12/13 03:54:11;;;;;;;0.65;0.25;;;;;;;;;;5052191;28;20067;-68
2021/12/13 03:56:42;;;;;;;0.65;0.10;;;;;;;;;;5051953;28;20510;-68
2021/12/13 03:59:12;;;;;;;0.25;0.10;;;;;;;;;;5052228;28;20029;-68
2021/12/13 04:01:41;;;;;;;1.17;0.30;;;;;;;;;;5051662;28;20009;-67
2021/12/13 04:04:09;;;;;;;0.85;0.20;;;;;;;;;;5052144;28;20114;-67
2021/12/13 04:06:37;;;;;;;0.10;0.10;;;;;;;;;;5055574;28;20035;-68
2021/12/13 04:09:02;;;;;;;0.45;0.08;;;;;;;;;;5056344;28;20036;-68
2021/12/13 04:11:28;;;;;;;1.23;0.30;;;;;;;;;;5056107;28;20025;-68
2021/12/13 04:13:57;;;;;;;0.38;0.10;;;;;;;;;;5056184;28;20409;-68
2021/12/13 04:16:34;;;;;;;0.30;0.00;;;;;;;;;;5056188;28;20112;-68
2021/12/13 04:19:07;;;;;;;1.17;0.30;;;;;;;;;;5056036;28;20009;-68
2021/12/13 04:21:41;;;;;;;0.80;0.22;;;;;;;;;;5055734;28;20017;-68
2021/12/13 04:24:09;;;;;;;0.30;0.20;;;;;;;;;;5055990;28;20061;-69
2021/12/13 04:26:43;;;;;;;0.20;0.20;;;;;;;;;;5055766;28;20612;-69
2021/12/13 04:29:13;;;;;;;0.45;0.30;;;;;;;;;;5037991;28;20025;-68
2021/12/13 04:31:38;;;;;;;0.30;0.15;;;;;;;;;;5055749;28;20404;-68
2021/12/13 04:34:04;;;;;;;0.52;0.30;;;;;;;;;;5055718;28;20028;-67
2021/12/13 04:36:34;;;;;;;0.35;0.00;;;;;;;;;;5055698;28;20043;-68
2021/12/13 04:39:06;;;;;;;1.85;0.38;;;;;;;;;;5054443;28;20511;-68
2021/12/13 04:41:31;;;;;;;0.20;0.05;;;;;;;;;;5055371;28;20049;-68
2021/12/13 04:44:02;;;;;;;0.17;0.17;;;;;;;;;;5055599;28;20059;-68
2021/12/13 04:46:29;;;;;;;0.38;0.10;;;;;;;;;;5037493;28;20032;-68
2021/12/13 04:48:56;;;;;;;0.45;0.15;;;;;;;;;;5055447;28;20520;-68
2021/12/13 04:51:24;;;;;;;0.55;0.10;;;;;;;;;;5055506;28;20060;-67
2021/12/13 04:53:50;;;;;;;0.88;0.20;;;;;;;;;;5037500;28;20021;-67
2021/12/13 04:56:20;;;;;;;0.40;0.10;;;;;;;;;;5044999;28;20013;-68
2021/12/13 04:58:47;;;;;;;0.10;0.03;;;;;;;;;;5055315;28;20044;-68
2021/12/13 05:01:13;;;;;;;0.32;0.28;;;;;;;;;;5055087;28;20373;-68
2021/12/13 05:03:40;;;;;;;0.85;0.13;;;;;;;;;;5054890;28;20041;-67
2021/12/13 05:06:07;;;;;;;0.98;0.10;;;;;;;;;;5053876;28;20020;-68
2021/12/13 05:08:32;;;;;;;0.57;0.10;;;;;;;;;;5055046;28;20025;-69
2021/12/13 05:11:01;;;;;;;0.10;0.10;;;;;;;;;;5053786;28;20514;-68
2021/12/13 05:13:29;;;;;;;0.20;0.10;;;;;;;;;;5055244;28;20020;-68
2021/12/13 05:15:58;;;;;;;0.10;0.10;;;;;;;;;;5055174;28;20487;-68
2021/12/13 05:18:33;;;;;;;0.13;0.03;;;;;;;;;;5054278;28;20044;-67
2021/12/13 05:20:58;;;;;;;;;;;;;;;;;;5055320;28;20452;-67
2021/12/13 05:23:24;;;;;;;0.88;0.10;;;;;;;;;;5054735;28;20271;-67
2021/12/13 05:25:51;;;;;;;0.40;0.10;;;;;;;;;;5054906;28;20017;-67
2021/12/13 05:28:21;;;;;;;0.30;0.10;;;;;;;;;;5054859;28;20025;-67
2021/12/13 05:30:58;;;;;;;0.35;0.17;;;;;;;;;;5054942;28;20491;-67
2021/12/13 05:33:25;;;;;;;0.28;0.10;;;;;;;;;;5054590;28;20106;-67
2021/12/13 05:35:53;;;;;;;0.52;0.30;;;;;;;;;;5054682;28;20024;-67
2021/12/13 05:38:24;;;;;;;0.30;0.20;;;;;;;;;;5054541;28;20067;-68
2021/12/13 05:40:50;;;;;;;0.55;0.15;;;;;;;;;;5054578;28;20063;-68
2021/12/13 05:43:18;;;;;;;0.80;0.10;;;;;;;;;;5054196;28;20388;-68
2021/12/13 05:45:45;;;;;;;0.30;0.00;;;;;;;;;;5054416;28;20021;-68
2021/12/13 05:48:15;;;;;;;0.28;0.10;;;;;;;;;;5054549;28;20107;-67
2021/12/13 05:50:42;;;;;;;0.20;0.10;;;;;;;;;;5054246;28;20119;-67
2021/12/13 05:53:10;;;;;;;0.20;0.10;;;;;;;;;;5054229;28;20036;-68
2021/12/13 05:55:46;;;;;;;0.55;0.10;;;;;;;;;;5036339;28;20013;-68
2021/12/13 05:58:11;;;;;;;0.50;0.00;;;;;;;;;;5036418;28;20029;-68
2021/12/13 06:00:39;;;;;;;0.40;0.10;;;;;;;;;;5053994;28;20477;-67
2021/12/13 06:03:09;;;;;;;0.75;0.20;;;;;;;;;;5053733;28;20049;-67
2021/12/13 06:05:36;;;;;;;0.10;0.10;;;;;;;;;;5053904;28;20024;-68
2021/12/13 06:08:04;;;;;;;0.10;0.00;;;;;;;;;;5054124;28;20464;-68
2021/12/13 06:10:47;;;;;;;1.08;0.10;;;;;;;;;;5035907;28;20071;-67
2021/12/13 06:13:31;;;;;;;0.35;0.13;;;;;;;;;;5053873;28;20020;-68
2021/12/13 06:15:56;;;;;;;0.40;0.10;;;;;;;;;;5052776;28;20055;-68
2021/12/13 06:18:24;;;;;;;0.52;0.10;;;;;;;;;;5053729;28;20052;-68
2021/12/13 06:21:02;;;;;;;0.35;0.15;;;;;;;;;;5053715;28;20104;-67
2021/12/13 06:23:29;;;;;;;1.05;0.40;;;;;;;;;;5053499;28;20185;-68
2021/12/13 06:25:56;;;;;;;1.05;0.10;;;;;;;;;;5053786;28;20063;-67
2021/12/13 06:28:31;;;;;;;1.15;0.10;;;;;;;;;;5052657;28;20036;-67
2021/12/13 06:31:04;;;;;;;0.40;0.20;;;;;;;;;;5053552;28;20032;-67
2021/12/13 06:33:43;;;;;;;1.30;0.40;;;;;;;;;;5053045;28;20358;-67
2021/12/13 06:36:09;;;;;;;0.43;0.05;;;;;;;;;;5035735;28;20047;-67
2021/12/13 06:38:41;;;;;;;0.43;0.10;;;;;;;;;;5035398;28;20021;-67
2021/12/13 06:41:29;;;;;;;0.00;0.00;;;;;;;;;;5035786;28;20289;-67
2021/12/13 06:43:58;;;;;;;0.63;0.10;;;;;;;;;;5035634;28;20424;-68
2021/12/13 06:46:23;;;;;;;0.30;0.10;;;;;;;;;;5053532;28;20018;-67
2021/12/13 06:48:59;;;;;;;0.40;0.20;;;;;;;;;;5053244;28;20028;-67
2021/12/13 06:51:45;;;;;;;0.63;0.32;;;;;;;;;;5053130;28;20021;-67
2021/12/13 06:54:12;;;;;;;0.30;0.00;;;;;;;;;;5053164;28;20252;-68
2021/12/13 06:56:38;;;;;;;0.40;0.20;;;;;;;;;;5035172;28;20021;-68
2021/12/13 06:59:06;;;;;;;0.75;0.28;;;;;;;;;;5053066;28;20028;-68
2021/12/13 07:01:33;;;;;;;0.65;0.10;;;;;;;;;;5050726;28;20385;-67
2021/12/13 07:04:03;;;;;;;1.23;0.10;;;;;;;;;;5049354;28;20087;-67
2021/12/13 07:06:28;;;;;;;0.35;0.10;;;;;;;;;;5052740;28;20052;-67
2021/12/13 07:09:08;;;;;;;1.08;0.25;;;;;;;;;;5052594;28;20068;-68
2021/12/13 07:11:42;;;;;;;0.45;0.10;;;;;;;;;;5052373;28;20017;-68
2021/12/13 07:14:09;;;;;;;1.00;0.30;;;;;;;;;;5049946;28;20354;-67
2021/12/13 07:16:38;;;;;;;0.30;0.28;;;;;;;;;;5050516;28;20067;-67
2021/12/13 07:19:18;;;;;;;0.85;0.20;;;;;;;;;;5051421;28;20524;-67
2021/12/13 07:22:00;;;;;;;0.35;0.10;;;;;;;;;;5051763;28;20014;-67
2021/12/13 07:24:28;;;;;;;0.30;0.20;;;;;;;;;;5047876;28;20021;-67
2021/12/13 07:26:55;;;;;;;0.20;0.10;;;;;;;;;;5047452;28;20047;-68
2021/12/13 07:29:23;;;;;;;0.43;0.15;;;;;;;;;;5048938;28;20308;-67
2021/12/13 07:32:02;;;;;;;0.25;0.22;;;;;;;;;;5051640;28;20490;-67
2021/12/13 07:34:27;;;;;;;0.22;0.13;;;;;;;;;;5049675;28;20479;-68
2021/12/13 07:36:54;;;;;;;1.23;0.10;;;;;;;;;;5045929;28;20029;-67
2021/12/13 07:39:20;;;;;;;0.60;0.20;;;;;;;;;;5023618;28;20259;-68
2021/12/13 07:41:50;;;;;;;0.77;0.13;;;;;;;;;;5051188;28;20138;-69
2021/12/13 07:44:32;;;;;;;0.00;0.00;;;;;;;;;;5051997;28;20025;-68
2021/12/13 07:46:59;;;;;;;0.85;0.22;;;;;;;;;;5029649;28;20060;-68
2021/12/13 07:49:29;;;;;;;0.22;0.20;;;;;;;;;;5049068;28;20021;-67
2021/12/13 07:51:56;;;;;;;0.00;0.00;;;;;;;;;;5050805;28;20566;-67
2021/12/13 07:54:24;;;;;;;0.10;0.10;;;;;;;;;;5040871;28;20403;-68
2021/12/13 07:56:52;;;;;;;0.28;0.10;;;;;;;;;;5052468;28;20013;-68
2021/12/13 07:59:32;;;;;;;1.17;0.20;;;;;;;;;;5036423;28;20075;-68
2021/12/13 08:02:07;;;;;;;0.40;0.10;;;;;;;;;;5049617;28;20029;-67
2021/12/13 08:04:35;;;;;;;0.65;0.17;;;;;;;;;;5051771;28;20055;-66
2021/12/13 08:07:11;;;;;;;0.75;0.20;;;;;;;;;;5052413;28;20112;-68
2021/12/13 08:09:41;;;;;;;0.75;0.38;;;;;;;;;;5014459;28;20023;-67
2021/12/13 08:12:18;;;;;;;1.55;0.35;;;;;;;;;;5032690;28;20037;-68
2021/12/13 08:14:44;;;;;;;1.13;0.10;;;;;;;;;;5043143;28;20139;-68
2021/12/13 08:17:11;;;;;;;0.20;0.05;;;;;;;;;;5045357;28;20127;-68
2021/12/13 08:19:37;;;;;;;0.05;0.00;;;;;;;;;;5050782;28;20500;-68
2021/12/13 08:22:04;;;;;;;0.00;0.00;;;;;;;;;;5045914;28;20025;-67
2021/12/13 08:24:31;;;;;;;1.10;0.35;;;;;;;;;;5047321;28;20024;-67
2021/12/13 08:26:59;;;;;;;0.30;0.10;;;;;;;;;;5030231;28;20029;-67
2021/12/13 08:29:31;;;;;;;1.20;0.20;;;;;;;;;;5014327;28;20413;-68
2021/12/13 08:31:57;;;;;;;1.17;0.20;;;;;;;;;;5047624;28;20025;-69
2021/12/13 08:34:27;;;;;;;0.32;0.10;;;;;;;;;;5049794;28;20039;-68
2021/12/13 08:36:52;;;;;;;0.82;0.10;;;;;;;;;;5047139;28;20411;-67
2021/12/13 08:39:20;;;;;;;0.63;0.20;;;;;;;;;;5047522;28;20013;-67
2021/12/13 08:41:51;;;;;;;0.60;0.10;;;;;;;;;;5047481;28;20029;-69
2021/12/13 08:44:21;;;;;;;0.38;0.30;;;;;;;;;;5050433;28;20028;-69
2021/12/13 08:46:46;;;;;;;0.80;0.30;;;;;;;;;;5047889;28;20029;-68
2021/12/13 08:49:11;;;;;;;0.60;0.25;;;;;;;;;;5047556;28;20024;-67
2021/12/13 08:51:47;;;;;;;0.25;0.10;;;;;;;;;;5023064;28;20025;-67
2021/12/13 08:54:13;;;;;;;0.50;0.10;;;;;;;;;;5045568;28;20064;-69
2021/12/13 08:56:42;;;;;;;1.00;0.10;;;;;;;;;;5048127;28;20052;-68
2021/12/13 08:59:12;;;;;;;1.45;0.15;;;;;;;;;;5055119;28;20266;-68
2021/12/13 09:01:39;;;;;;;0.75;0.35;;;;;;;;;;5054312;28;20100;-68
2021/12/13 09:04:06;;;;;;;0.25;0.13;;;;;;;;;;5054887;28;20029;-68
2021/12/13 09:06:33;;;;;;;1.55;0.20;;;;;;;;;;5051110;28;20063;-68
2021/12/13 09:09:01;;;;;;;0.85;0.20;;;;;;;;;;5051390;28;20154;-68
2021/12/13 09:11:43;;;;;;;0.15;0.10;;;;;;;;;;5054990;28;20411;-68
2021/12/13 09:14:15;;;;;;;0.50;0.20;;;;;;;;;;5051973;28;20047;-68
2021/12/13 09:16:40;;;;;;;0.13;0.10;;;;;;;;;;5054428;28;20021;-68
2021/12/13 09:19:07;;;;;;;0.40;0.10;;;;;;;;;;5054173;28;20361;-68
2021/12/13 09:21:42;;;;;;;0.10;0.10;;;;;;;;;;5054217;28;20020;-68
2021/12/13 09:24:08;;;;;;;1.30;0.63;;;;;;;;;;5054158;28;20067;-68
2021/12/13 09:26:40;;;;;;;1.35;0.10;;;;;;;;;;5053421;28;20025;-68
2021/12/13 09:29:06;;;;;;;0.55;0.28;;;;;;;;;;5049215;28;20432;-68
2021/12/13 09:31:34;;;;;;;1.08;0.20;;;;;;;;;;5051526;28;20052;-68
2021/12/13 09:34:01;;;;;;;0.20;0.10;;;;;;;;;;5053039;28;20021;-67
2021/12/13 09:36:29;;;;;;;0.20;0.10;;;;;;;;;;5037233;28;20381;-67
2021/12/13 09:39:04;;;;;;;0.25;0.13;;;;;;;;;;5054306;28;20025;-68
2021/12/13 09:41:32;;;;;;;0.47;0.20;;;;;;;;;;5053621;28;20024;-68
2021/12/13 09:44:16;;;;;;;0.20;0.20;;;;;;;;;;5053280;28;20036;-67
2021/12/13 09:46:51;;;;;;;0.20;0.00;;;;;;;;;;5051745;28;20067;-69
2021/12/13 09:49:32;;;;;;;0.00;0.00;;;;;;;;;;5040397;28;20049;-67
2021/12/13 09:52:08;;;;;;;0.98;0.20;;;;;;;;;;5049796;28;20056;-67
2021/12/13 09:54:37;;;;;;;0.20;0.15;;;;;;;;;;5053977;28;20410;-67
2021/12/13 09:57:04;;;;;;;0.80;0.10;;;;;;;;;;5053630;28;20216;-67
2021/12/13 09:59:49;;;;;;;0.10;0.10;;;;;;;;;;5032494;28;20025;-67
2021/12/13 10:02:20;;;;;;;0.50;0.30;;;;;;;;;;5037731;28;20045;-68
2021/12/13 10:04:45;;;;;;;0.98;0.38;;;;;;;;;;5053682;28;20044;-67
2021/12/13 10:07:18;;;;;;;0.20;0.10;;;;;;;;;;5048470;28;20372;-67
2021/12/13 10:09:46;;;;;;;0.50;0.10;;;;;;;;;;5048285;28;20017;-68
2021/12/13 10:12:15;;;;;;;0.57;0.20;;;;;;;;;;5053156;28;20017;-69
2021/12/13 10:14:44;;;;;;;0.20;0.13;;;;;;;;;;5053333;28;20024;-68
2021/12/13 10:17:10;;;;;;;1.73;0.30;;;;;;;;;;5052816;28;20013;-68
2021/12/13 10:19:41;;;;;;;0.30;0.10;;;;;;;;;;5052714;28;20028;-68
2021/12/13 10:22:07;;;;;;;0.40;0.17;;;;;;;;;;5028904;28;20385;-68
2021/12/13 10:24:37;;;;;;;1.05;0.10;;;;;;;;;;5052126;28;20154;-68
2021/12/13 10:27:05;;;;;;;0.28;0.15;;;;;;;;;;5051764;28;20091;-68
2021/12/13 10:29:31;;;;;;;0.90;0.40;;;;;;;;;;5042542;28;20100;-69
2021/12/13 10:31:58;;;;;;;1.38;0.10;;;;;;;;;;5050809;28;20142;-68
2021/12/13 10:34:28;;;;;;;0.50;0.10;;;;;;;;;;5052511;28;20221;-67
2021/12/13 10:37:13;;;;;;;0.55;0.17;;;;;;;;;;5052310;28;20480;-67
2021/12/13 10:39:42;;;;;;;0.30;0.15;;;;;;;;;;5051967;28;20136;-68
2021/12/13 10:42:10;;;;;;;0.20;0.10;;;;;;;;;;5053051;28;20027;-68
2021/12/13 10:44:38;;;;;;;0.50;0.20;;;;;;;;;;5033339;28;20028;-68
2021/12/13 10:47:09;;;;;;;0.75;0.20;;;;;;;;;;5044434;28;20021;-67
2021/12/13 10:49:36;;;;;;;0.93;0.20;;;;;;;;;;5052903;28;20040;-67
2021/12/13 10:52:05;;;;;;;1.42;0.15;;;;;;;;;;5047510;28;20033;-67
2021/12/13 10:54:33;;;;;;;0.30;0.10;;;;;;;;;;5032967;28;20142;-68
2021/12/13 10:57:05;;;;;;;0.15;0.15;;;;;;;;;;5040498;28;20067;-68
2021/12/13 10:59:31;;;;;;;0.32;0.10;;;;;;;;;;5052985;28;20021;-67
2021/12/13 11:01:58;;;;;;;0.85;0.15;;;;;;;;;;5052956;28;20037;-68
2021/12/13 11:04:26;;;;;;;0.43;0.10;;;;;;;;;;5052409;28;20067;-67
2021/12/13 11:06:51;;;;;;;0.32;0.10;;;;;;;;;;5052806;28;20345;-67
2021/12/13 11:09:19;;;;;;;1.15;0.30;;;;;;;;;;5051180;28;20040;-67
2021/12/13 11:12:04;;;;;;;0.73;0.10;;;;;;;;;;5046929;28;20105;-67
2021/12/13 11:14:32;;;;;;;0.15;0.15;;;;;;;;;;5049172;28;20032;-68
2021/12/13 11:16:59;;;;;;;0.10;0.10;;;;;;;;;;5051555;28;20119;-68
2021/12/13 11:19:26;;;;;;;0.32;0.10;;;;;;;;;;5051195;28;20021;-67
2021/12/13 11:21:54;;;;;;;0.85;0.10;;;;;;;;;;5052458;28;20009;-68
2021/12/13 11:24:21;;;;;;;0.20;0.00;;;;;;;;;;5051875;28;20039;-67
2021/12/13 11:26:47;;;;;;;0.30;0.10;;;;;;;;;;5049916;28;20152;-68
2021/12/13 11:29:15;;;;;;;0.43;0.20;;;;;;;;;;5047074;28;20488;-68
2021/12/13 11:31:52;;;;;;;0.98;0.17;;;;;;;;;;5052319;28;20048;-69
2021/12/13 11:34:23;;;;;;;0.30;0.30;;;;;;;;;;5052309;28;20029;-67
2021/12/13 11:37:07;;;;;;;0.57;0.40;;;;;;;;;;5049680;28;20021;-68
2021/12/13 11:39:53;;;;;;;0.20;0.00;;;;;;;;;;5026641;28;20468;-70
2021/12/13 11:42:37;;;;;;;0.13;0.10;;;;;;;;;;5037671;28;20108;-69
2021/12/13 11:45:20;;;;;;;0.70;0.13;;;;;;;;;;5051899;28;20082;-69
2021/12/13 11:48:05;;;;;;;0.53;0.10;;;;;;;;;;5049882;28;20098;-69
2021/12/13 11:50:49;;;;;;;0.22;0.10;;;;;;;;;;5052454;28;20732;-69
2021/12/13 11:53:23;;;;;;;1.75;0.28;;;;;;;;;;5052224;28;20029;-69
2021/12/13 11:56:07;;;;;;;0.82;0.35;;;;;;;;;;5052248;28;20021;-69
2021/12/13 11:58:58;;;;;;;1.37;0.20;;;;;;;;;;5052142;28;20028;-70
2021/12/13 12:01:43;;;;;;;1.33;0.20;;;;;;;;;;5052007;28;20288;-68
2021/12/13 12:04:27;;;;;;;0.75;0.20;;;;;;;;;;5052171;28;20065;-70
2021/12/13 12:06:55;;;;;;;0.98;0.20;;;;;;;;;;5052187;28;20145;-68
2021/12/13 12:09:39;;;;;;;0.30;0.17;;;;;;;;;;5034150;28;20025;-69
2021/12/13 12:12:20;;;;;;;0.47;0.10;;;;;;;;;;5052374;28;20017;-69
2021/12/13 12:14:59;;;;;;;0.80;0.10;;;;;;;;;;5052058;28;20048;-68
2021/12/13 12:17:24;;;;;;;0.10;0.10;;;;;;;;;;5051896;28;20045;-70
2021/12/13 12:19:50;;;;;;;0.82;0.30;;;;;;;;;;5052063;28;20045;-70
2021/12/13 12:22:17;;;;;;;0.93;0.15;;;;;;;;;;5051970;28;20516;-70
2021/12/13 12:24:44;;;;;;;0.10;0.10;;;;;;;;;;5050626;28;20044;-70
2021/12/13 12:27:15;;;;;;;0.85;0.20;;;;;;;;;;5053260;28;20040;-70
2021/12/13 12:29:44;;;;;;;0.50;0.35;;;;;;;;;;5056080;28;20108;-70
2021/12/13 12:32:15;;;;;;;0.20;0.10;;;;;;;;;;5055920;28;20092;-70
2021/12/13 12:34:48;;;;;;;0.22;0.13;;;;;;;;;;5055975;28;20362;-70
2021/12/13 12:37:32;;;;;;;0.20;0.10;;;;;;;;;;5055870;28;20025;-71
2021/12/13 12:40:13;;;;;;;0.30;0.20;;;;;;;;;;5055840;28;20014;-71
2021/12/13 12:42:41;;;;;;;0.15;0.10;;;;;;;;;;5055599;28;20020;-70
2021/12/13 12:45:12;;;;;;;0.20;0.00;;;;;;;;;;5037770;28;20021;-69
2021/12/13 12:47:37;;;;;;;1.38;0.10;;;;;;;;;;5055419;28;20021;-70
2021/12/13 12:50:13;;;;;;;0.13;0.10;;;;;;;;;;5055517;28;20108;-70
2021/12/13 12:52:46;;;;;;;0.60;0.20;;;;;;;;;;5055400;28;20029;-70
2021/12/13 12:55:12;;;;;;;0.90;0.20;;;;;;;;;;5036333;28;20524;-70
2021/12/13 12:57:38;;;;;;;1.13;0.22;;;;;;;;;;5055295;28;20064;-70
2021/12/13 13:00:03;;;;;;;0.88;0.10;;;;;;;;;;5055335;28;20049;-69
2021/12/13 13:02:31;;;;;;;0.22;0.15;;;;;;;;;;5055197;28;20404;-69
2021/12/13 13:04:58;;;;;;;1.13;0.40;;;;;;;;;;5037395;28;20021;-69
2021/12/13 13:07:28;;;;;;;0.75;0.10;;;;;;;;;;5055107;28;20016;-70
2021/12/13 13:09:54;;;;;;;0.17;0.13;;;;;;;;;;5055376;28;20024;-70
2021/12/13 13:12:29;;;;;;;0.47;0.00;;;;;;;;;;5054876;28;20024;-69
2021/12/13 13:14:59;;;;;;;0.22;0.08;;;;;;;;;;5055301;28;20021;-69
2021/12/13 13:17:29;;;;;;;0.50;0.10;;;;;;;;;;5037045;28;20028;-69
2021/12/13 13:19:56;;;;;;;0.65;0.15;;;;;;;;;;5037266;28;20025;-69
2021/12/13 13:22:24;;;;;;;0.30;0.30;;;;;;;;;;5054900;28;20029;-69
2021/12/13 13:24:51;;;;;;;0.68;0.13;;;;;;;;;;5054987;28;20020;-70
2021/12/13 13:27:17;;;;;;;0.35;0.03;;;;;;;;;;5037117;28;20103;-69
2021/12/13 13:29:43;;;;;;;0.32;0.10;;;;;;;;;;5054747;28;20112;-70
2021/12/13 13:32:10;;;;;;;0.88;0.20;;;;;;;;;;5054795;28;20013;-69
2021/12/13 13:34:51;;;;;;;0.75;0.10;;;;;;;;;;5036676;28;20021;-70
2021/12/13 13:37:21;;;;;;;0.35;0.10;;;;;;;;;;5036532;28;20042;-69
2021/12/13 13:39:51;;;;;;;0.30;0.10;;;;;;;;;;5054546;28;20496;-70
2021/12/13 13:42:21;;;;;;;0.30;0.20;;;;;;;;;;5054535;28;20017;-69
2021/12/13 13:44:46;;;;;;;0.45;0.20;;;;;;;;;;5054817;28;20025;-69
2021/12/13 13:47:14;;;;;;;0.15;0.10;;;;;;;;;;5036728;28;20535;-70
2021/12/13 13:49:40;;;;;;;0.40;0.10;;;;;;;;;;5054315;28;20021;-71
2021/12/13 13:52:11;;;;;;;1.58;0.13;;;;;;;;;;5054398;28;20372;-70
2021/12/13 13:54:36;;;;;;;0.57;0.22;;;;;;;;;;5054182;28;20051;-70
2021/12/13 13:57:02;;;;;;;0.77;0.30;;;;;;;;;;5053521;28;20104;-70
2021/12/13 13:59:27;;;;;;;0.85;0.10;;;;;;;;;;5053659;28;20277;-69
2021/12/13 14:01:52;;;;;;;1.08;0.20;;;;;;;;;;5054071;28;20483;-70
2021/12/13 14:04:35;;;;;;;1.25;0.22;;;;;;;;;;5054395;28;20062;-70
2021/12/13 14:07:07;;;;;;;0.88;0.20;;;;;;;;;;5054224;28;20488;-70
2021/12/13 14:09:37;;;;;;;0.93;0.60;;;;;;;;;;5053900;28;20035;-69
2021/12/13 14:12:08;;;;;;;0.38;0.17;;;;;;;;;;5053928;28;20039;-69
2021/12/13 14:14:48;;;;;;;0.85;0.20;;;;;;;;;;5053815;28;20108;-69
2021/12/13 14:17:14;;;;;;;0.50;0.20;;;;;;;;;;5054003;28;20040;-70
2021/12/13 14:19:42;;;;;;;0.43;0.20;;;;;;;;;;5053654;28;20060;-70
2021/12/13 14:22:08;;;;;;;0.88;0.10;;;;;;;;;;5053827;28;20471;-69
2021/12/13 14:24:41;;;;;;;0.70;0.10;;;;;;;;;;5053946;28;20021;-69
2021/12/13 14:27:33;;;;;;;0.20;0.13;;;;;;;;;;5053863;28;20028;-69
2021/12/13 14:30:07;;;;;;;0.88;0.22;;;;;;;;;;5051449;28;20029;-69
2021/12/13 14:32:32;;;;;;;;;;;;;;;;;;5036010;28;20039;-70
2021/12/13 14:34:57;;;;;;;0.10;0.10;;;;;;;;;;5054046;28;19905;-69
2021/12/13 14:37:23;;;;;;;0.10;0.10;;;;;;;;;;5052132;28;20479;-69
2021/12/13 14:39:50;;;;;;;0.20;0.10;;;;;;;;;;5053566;28;20066;-69
2021/12/13 14:42:18;;;;;;;0.75;0.20;;;;;;;;;;5053459;28;20461;-69
2021/12/13 14:44:51;;;;;;;0.63;0.17;;;;;;;;;;5053292;28;20375;-69
2021/12/13 14:47:18;;;;;;;0.20;0.20;;;;;;;;;;5035445;28;20017;-70
2021/12/13 14:49:48;;;;;;;0.30;0.10;;;;;;;;;;5052413;28;20028;-71
2021/12/13 14:52:21;;;;;;;1.15;0.52;;;;;;;;;;5053294;28;20024;-70
2021/12/13 14:54:48;;;;;;;0.20;0.10;;;;;;;;;;5053211;28;20028;-70
2021/12/13 14:57:16;;;;;;;1.20;0.10;;;;;;;;;;5053296;28;20055;-70
2021/12/13 14:59:43;;;;;;;0.73;0.20;;;;;;;;;;5053021;28;20017;-69
2021/12/13 15:02:12;;;;;;;1.15;0.10;;;;;;;;;;5052828;28;20067;-70
2021/12/13 15:04:39;;;;;;;0.20;0.20;;;;;;;;;;5052631;28;20025;-70
2021/12/13 15:07:07;;;;;;;1.38;0.10;;;;;;;;;;5051699;28;20040;-70
2021/12/13 15:09:38;;;;;;;0.20;0.10;;;;;;;;;;5052742;28;20035;-69
2021/12/13 15:12:06;;;;;;;1.90;0.20;;;;;;;;;;5052863;28;20471;-70